メインページ
METAR-TAF:

METAR-TAF

空港 :

アンリ・コアンダ国際空港

ブカレスト, ルーマニア

緯度: 44-33N, 経度: 026-06E, 海抜: 95m

現時点の気象観測

当レポートは39分前の11:30(UTC)に作成
西の風 13kt
気温 28°C
湿度 45%
気圧 1009 hPa
視程10km以上
1,500メートル以下は雲なし、積乱雲なし

METAR: LROP 241130Z 26013KT CAVOK 28/15 Q1009 NOSIG

時間: 15:09 (12:09 UTC)

予報

当レポートは1時間9分前の11:00(UTC)に作成
予報は24日の 12時(UTC)から 25日の 12時(UTC)まで有効
西の風 14kt
視程10km以上
1,500メートル以下は雲なし、積乱雲なし
24日の 14時(UTC)から 24日の 17時(UTC)まで一時的に
の風 30kt、最大40ktの突風を伴う
高度4000ftの雲はほとんどない, 積乱雲.
スコール
24日の 17時(UTC)から 24日の 19時(UTC)まで徐々に
北東の風 10kt
視程: 5000m
高度1500ftの千切れ雲あり
高度3000ftの雲は散在している, 積乱雲.
弱いにわか雨
25日の 00時(UTC)から 25日の 02時(UTC)まで徐々に
変向風 4kt
視程10km以上
高度3000ftの千切れ雲あり
25日の 09時(UTC)から 25日の 12時(UTC)まで一時的に
北/北西の風 10kt
高度3500ftの雲は散在している, 積乱雲.

TAF: LROP 241100Z 2412/2512 27014KT CAVOK TEMPO 2414/2417 36030G40KT SQ FEW040CB BECMG 2417/2419 04010KT 5000 -SHRA BKN015 SCT030CB BECMG 2500/2502 VRB04KT 9999 NSW BKN030 TEMPO 2509/2512 33010KT SCT035CB

4,000以上の空港の気象観測と天気予報(METAR報とTAF報)

利用可能な観測所は地図上に黄色い丸と赤い丸で示す。

丸の上にカーソルを重ねると観測所名を参照できる。

次にクリックすると気象観測と天気予報を参照できる。

マップの切り替え:黒色「×」印の緑ボタンをクリックして拡大、「-」印の緑ボタンをクリックして縮小、緑色の三角印をクリックして隣りの地図に切り替え


METAR-TAF: